Time;durP1;ratioP1;P1;durP2;ratioP2;P2;SDS_P1;SDS_P2;PMS_P1;PMS_P2;Temp;Humidity;BMP_temperature;BMP_pressure;BME280_temperature;BME280_humidity;BME280_pressure;Samples;Min_cycle;Max_cycle;Signal;HPM_P1;HPM_P2
2022/02/01 00:01:12;;;;;;;;;;;3.60;99.90;;;;;;5080874;28;19917;-70
2022/02/01 00:03:39;;;;;;;;;;;3.60;99.90;;;;;;5086638;28;20366;-70
2022/02/01 00:08:42;;;;;;;;;;;3.60;99.90;;;;;;5079959;28;19912;-69
2022/02/01 00:38:00;;;;;;;;;;;4.20;99.90;;;;;;5070715;28;19916;-70
2022/02/01 00:40:26;;;;;;;;;;;4.20;99.90;;;;;;5068141;28;19916;-69
2022/02/01 00:42:51;;;;;;;;;;;4.20;99.90;;;;;;5070632;28;19916;-69
2022/02/01 00:45:17;;;;;;;;;;;4.20;99.90;;;;;;5071133;28;20279;-70
2022/02/01 00:47:43;;;;;;;;;;;4.20;99.90;;;;;;5048414;28;20292;-70
2022/02/01 00:50:12;;;;;;;;;;;4.20;99.90;;;;;;5077372;28;20258;-70
2022/02/01 00:52:38;;;;;;;;;;;4.20;99.90;;;;;;5078213;28;20296;-70
2022/02/01 00:55:04;;;;;;;;;;;4.20;99.90;;;;;;5085227;28;19962;-70
2022/02/01 00:57:30;;;;;;;;;;;4.30;99.90;;;;;;5081325;28;19920;-69
2022/02/01 00:59:55;;;;;;;;;;;4.30;99.90;;;;;;5081444;28;20337;-69
2022/02/01 01:02:21;;;;;;;;;;;4.20;99.90;;;;;;5082343;28;19913;-69
2022/02/01 01:04:46;;;;;;;;;;;4.20;99.90;;;;;;5076396;28;19916;-70
2022/02/01 01:07:12;;;;;;;;;;;4.20;99.90;;;;;;5076735;28;20365;-69
2022/02/01 01:09:38;;;;;;;;;;;4.20;99.90;;;;;;5079380;28;20039;-69
2022/02/01 01:12:03;;;;;;;;;;;4.20;99.90;;;;;;5084522;28;19919;-69
2022/02/01 01:43:54;;;;;;;;;;;4.30;99.90;;;;;;5078672;28;19974;-70
2022/02/01 01:54:22;;;;;;;;;;;4.40;99.90;;;;;;5079481;28;19923;-70
2022/02/01 01:56:48;;;;;;;;;;;4.40;99.90;;;;;;5079658;28;19921;-69
2022/02/01 01:59:14;;;;;;;;;;;4.40;99.90;;;;;;5084458;28;19926;-70
2022/02/01 02:01:40;;;;;;;;;;;4.40;99.90;;;;;;5076301;28;20281;-70
2022/02/01 02:04:06;;;;;;;;;;;4.40;99.90;;;;;;5080152;28;20018;-70
2022/02/01 02:06:32;;;;;;;;;;;4.40;99.90;;;;;;5084750;28;20358;-70
2022/02/01 02:08:59;;;;;;;;;;;4.40;99.90;;;;;;5079191;28;19912;-69
2022/02/01 02:16:43;;;;;;;;;;;4.40;99.90;;;;;;5076923;28;19986;-69
2022/02/01 02:19:10;;;;;;;;;;;4.50;99.90;;;;;;5087505;28;19964;-69
2022/02/01 02:21:36;;;;;;;;;;;4.50;99.90;;;;;;5086327;28;19966;-69
2022/02/01 02:24:02;;;;;;;;;;;4.40;99.90;;;;;;5084707;28;19920;-69
2022/02/01 02:26:28;;;;;;;;;;;4.30;99.90;;;;;;5087392;28;19912;-69
2022/02/01 02:28:54;;;;;;;;;;;4.20;99.90;;;;;;5084235;28;20407;-69
2022/02/01 02:31:23;;;;;;;;;;;4.10;99.90;;;;;;5088365;28;19966;-69
2022/02/01 02:33:49;;;;;;;;;;;4.00;99.90;;;;;;5078779;28;20374;-69
2022/02/01 02:38:51;;;;;;;;;;;3.90;99.90;;;;;;5084729;28;19912;-70
2022/02/01 02:41:29;;;;;;;;;;;3.90;99.90;;;;;;5081952;28;19916;-69
2022/02/01 02:46:41;;;;;;;;;;;3.80;99.90;;;;;;5087403;28;20250;-69
2022/02/01 02:49:07;;;;;;;;;;;3.80;99.90;;;;;;5082175;28;20272;-70
2022/02/01 02:51:33;;;;;;;;;;;3.90;99.90;;;;;;5081353;28;19955;-70
2022/02/01 02:54:06;;;;;;;;;;;3.80;99.90;;;;;;5085271;28;19963;-70
2022/02/01 02:56:32;;;;;;;;;;;3.80;99.90;;;;;;5075577;28;19916;-70
2022/02/01 02:58:58;;;;;;;;;;;3.80;99.90;;;;;;5083326;28;20318;-70
2022/02/01 03:01:23;;;;;;;;;;;3.80;99.90;;;;;;5080842;28;19939;-70
2022/02/01 03:03:49;;;;;;;;;;;3.80;99.90;;;;;;5084785;28;19987;-71
2022/02/01 03:06:14;;;;;;;;;;;3.70;99.90;;;;;;5082337;28;20203;-69
2022/02/01 03:08:40;;;;;;;;;;;3.70;99.90;;;;;;5079450;28;20211;-70
2022/02/01 03:11:11;;;;;;;;;;;3.70;99.90;;;;;;5088717;28;19912;-70
2022/02/01 03:13:39;;;;;;;;;;;3.80;99.90;;;;;;5089171;28;20307;-69
2022/02/01 03:21:14;;;;;;;;;;;3.80;99.90;;;;;;5083054;28;19974;-69
2022/02/01 03:23:39;;;;;;;;;;;3.80;99.90;;;;;;5083952;28;20318;-69
2022/02/01 03:26:05;;;;;;;;;;;3.80;99.90;;;;;;5083737;28;20314;-70
2022/02/01 03:28:30;;;;;;;;;;;3.80;99.90;;;;;;5077026;28;19912;-69
2022/02/01 03:30:56;;;;;;;;;;;3.90;99.90;;;;;;5084975;28;19912;-70
2022/02/01 03:33:22;;;;;;;;;;;3.90;99.90;;;;;;5078606;28;19912;-69
2022/02/01 03:35:48;;;;;;;;;;;3.90;99.90;;;;;;5085833;28;19919;-73
2022/02/01 03:38:13;;;;;;;;;;;3.90;99.90;;;;;;5079025;28;19916;-70
2022/02/01 03:40:39;;;;;;;;;;;3.90;99.90;;;;;;5086299;28;20581;-69
2022/02/01 03:43:04;;;;;;;;;;;3.90;99.90;;;;;;5085882;28;19963;-70
2022/02/01 03:45:30;;;;;;;;;;;3.90;99.90;;;;;;5089104;28;19967;-69
2022/02/01 03:47:55;;;;;;;;;;;4.00;99.90;;;;;;5082759;28;19917;-70
2022/02/01 03:50:21;;;;;;;;;;;4.00;99.90;;;;;;5084325;28;19912;-70
2022/02/01 03:52:47;;;;;;;;;;;4.00;99.90;;;;;;5077328;28;20311;-71
2022/02/01 03:55:12;;;;;;;;;;;4.10;99.90;;;;;;5080472;28;20364;-69
2022/02/01 03:57:38;;;;;;;;;;;4.10;99.90;;;;;;5086137;28;20249;-69
2022/02/01 04:00:05;;;;;;;;;;;4.10;99.90;;;;;;5085049;28;20236;-70
2022/02/01 04:02:31;;;;;;;;;;;4.20;99.90;;;;;;5088375;28;19966;-71
2022/02/01 04:04:56;;;;;;;;;;;4.20;99.90;;;;;;5087023;28;19920;-70
2022/02/01 04:07:22;;;;;;;;;;;4.20;99.90;;;;;;5086181;28;19920;-70
2022/02/01 04:09:50;;;;;;;;;;;4.20;99.90;;;;;;5082181;28;20356;-70
2022/02/01 04:12:15;;;;;;;;;;;4.20;99.90;;;;;;5076869;28;19920;-70
2022/02/01 04:14:41;;;;;;;;;;;4.20;99.90;;;;;;5080676;28;19912;-69
2022/02/01 04:17:08;;;;;;;;;;;4.20;99.90;;;;;;5076758;28;19913;-70
2022/02/01 04:19:34;;;;;;;;;;;4.20;99.90;;;;;;5081792;28;19963;-70
2022/02/01 04:22:03;;;;;;;;;;;4.20;99.90;;;;;;5083429;28;20359;-70
2022/02/01 04:24:48;;;;;;;;;;;4.30;99.90;;;;;;5090072;28;19959;-70
2022/02/01 04:27:30;;;;;;;;;;;4.30;99.90;;;;;;5081049;28;19970;-70
2022/02/01 04:30:05;;;;;;;;;;;4.30;99.90;;;;;;5086054;28;19916;-69
2022/02/01 04:32:31;;;;;;;;;;;4.30;99.90;;;;;;5086015;28;19935;-70
2022/02/01 04:34:59;;;;;;;;;;;4.30;99.90;;;;;;5083618;28;20315;-70
2022/02/01 04:37:28;;;;;;;;;;;4.30;99.90;;;;;;5083824;28;20211;-70
2022/02/01 04:39:53;;;;;;;;;;;4.40;99.90;;;;;;5082936;28;19995;-70
2022/02/01 04:42:19;;;;;;;;;;;4.40;99.90;;;;;;5087536;28;20054;-70
2022/02/01 04:44:44;;;;;;;;;;;4.40;99.90;;;;;;5090719;28;19920;-70
2022/02/01 04:47:10;;;;;;;;;;;4.30;99.90;;;;;;5086330;28;20024;-70
2022/02/01 04:49:35;;;;;;;;;;;4.30;99.90;;;;;;5076664;28;19916;-70
2022/02/01 04:52:01;;;;;;;;;;;4.40;99.90;;;;;;5075921;28;19920;-70
2022/02/01 04:54:27;;;;;;;;;;;4.40;99.90;;;;;;5088802;28;19934;-70
2022/02/01 04:56:52;;;;;;;;;;;4.40;99.90;;;;;;5088770;28;19913;-70
2022/02/01 04:59:19;;;;;;;;;;;4.50;99.90;;;;;;5080715;28;19916;-70
2022/02/01 05:01:45;;;;;;;;;;;4.50;99.90;;;;;;5081698;28;19926;-70
2022/02/01 05:04:14;;;;;;;;;;;4.60;99.90;;;;;;5081364;28;19959;-70
2022/02/01 05:06:39;;;;;;;;;;;4.60;99.90;;;;;;5085149;28;19912;-70
2022/02/01 05:09:06;;;;;;;;;;;4.60;99.90;;;;;;5085488;28;19926;-70
2022/02/01 05:11:32;;;;;;;;;;;4.60;99.90;;;;;;5083883;28;19962;-69
2022/02/01 05:14:05;;;;;;;;;;;4.60;99.90;;;;;;5076306;28;19916;-70
2022/02/01 05:16:57;;;;;;;;;;;4.60;99.90;;;;;;5082041;28;20075;-70
2022/02/01 05:22:08;;;;;;;;;;;4.60;99.90;;;;;;5083949;28;19924;-70
2022/02/01 05:24:37;;;;;;;;;;;4.70;99.90;;;;;;5080297;28;19924;-70
2022/02/01 05:27:04;;;;;;;;;;;4.70;99.90;;;;;;5080384;28;20334;-70
2022/02/01 05:29:29;;;;;;;;;;;4.70;99.90;;;;;;5080245;28;19921;-70
2022/02/01 05:31:58;;;;;;;;;;;4.70;99.90;;;;;;5086724;28;19913;-70
2022/02/01 05:34:23;;;;;;;;;;;4.70;99.90;;;;;;5086542;28;19997;-70
2022/02/01 05:36:49;;;;;;;;;;;4.70;99.90;;;;;;5094027;28;19991;-70
2022/02/01 05:39:20;;;;;;;;;;;4.70;99.90;;;;;;5081198;28;20219;-70
2022/02/01 05:41:46;;;;;;;;;;;4.70;99.90;;;;;;5078869;28;19920;-70
2022/02/01 05:44:12;;;;;;;;;;;4.70;99.90;;;;;;5082118;28;19927;-70
2022/02/01 05:46:37;;;;;;;;;;;4.80;99.90;;;;;;5086062;28;19912;-70
2022/02/01 05:49:04;;;;;;;;;;;4.70;99.90;;;;;;5075295;28;19924;-70
2022/02/01 05:51:29;;;;;;;;;;;4.80;99.90;;;;;;5078306;28;19913;-70
2022/02/01 05:53:55;;;;;;;;;;;4.80;99.90;;;;;;5077184;28;19912;-70
2022/02/01 05:56:20;;;;;;;;;;;4.70;99.90;;;;;;5087311;28;19958;-70
2022/02/01 05:58:46;;;;;;;;;;;4.80;99.90;;;;;;5083383;28;19918;-70
2022/02/01 06:01:12;;;;;;;;;;;4.80;99.90;;;;;;5078090;28;19913;-70
2022/02/01 06:03:38;;;;;;;;;;;4.80;99.90;;;;;;5076218;28;19917;-70
2022/02/01 06:06:04;;;;;;;;;;;4.80;99.90;;;;;;5088331;28;19924;-71
2022/02/01 06:08:29;;;;;;;;;;;4.80;99.90;;;;;;5081964;28;19927;-70
2022/02/01 06:10:55;;;;;;;;;;;4.80;99.90;;;;;;5082361;28;19931;-70
2022/02/01 06:13:20;;;;;;;;;;;4.80;99.90;;;;;;5087287;28;19920;-70
2022/02/01 06:15:46;;;;;;;;;;;4.80;99.90;;;;;;5078973;28;19978;-70
2022/02/01 06:18:11;;;;;;;;;;;4.80;99.90;;;;;;5083322;28;20380;-70
2022/02/01 06:20:37;;;;;;;;;;;4.80;99.90;;;;;;5088975;28;19980;-70
2022/02/01 06:23:10;;;;;;;;;;;4.80;99.90;;;;;;5091846;28;19992;-70
2022/02/01 06:25:48;;;;;;;;;;;4.80;99.90;;;;;;5074633;28;20007;-70
2022/02/01 06:28:14;;;;;;;;;;;4.80;99.90;;;;;;5081642;28;19966;-70
2022/02/01 06:30:40;;;;;;;;;;;4.80;99.90;;;;;;5081677;28;19916;-70
2022/02/01 06:33:05;;;;;;;;;;;4.80;99.90;;;;;;5083295;28;20396;-70
2022/02/01 06:35:31;;;;;;;;;;;4.90;99.90;;;;;;5074370;28;19959;-70
2022/02/01 06:37:56;;;;;;;;;;;4.90;99.90;;;;;;5075933;28;19913;-70
2022/02/01 06:40:22;;;;;;;;;;;4.90;99.90;;;;;;5082513;28;20218;-71
2022/02/01 06:42:47;;;;;;;;;;;4.90;99.90;;;;;;5087033;28;19929;-70
2022/02/01 06:45:13;;;;;;;;;;;5.00;99.90;;;;;;5079848;28;19931;-70
2022/02/01 06:47:38;;;;;;;;;;;5.00;99.90;;;;;;5083212;28;19923;-70
2022/02/01 06:50:04;;;;;;;;;;;5.00;99.90;;;;;;5078122;28;19924;-70
2022/02/01 06:52:31;;;;;;;;;;;5.00;99.90;;;;;;5080046;28;19920;-70
2022/02/01 06:55:01;;;;;;;;;;;5.00;99.90;;;;;;5075188;28;19943;-70
2022/02/01 06:57:26;;;;;;;;;;;5.10;99.90;;;;;;5082766;28;19927;-70
2022/02/01 06:59:52;;;;;;;;;;;5.20;99.90;;;;;;5088403;28;19913;-70
2022/02/01 07:02:18;;;;;;;;;;;5.20;99.90;;;;;;5082276;28;19916;-71
2022/02/01 07:04:43;;;;;;;;;;;5.30;99.90;;;;;;5085371;28;19920;-71
2022/02/01 07:07:10;;;;;;;;;;;5.40;99.90;;;;;;5089891;28;20011;-71
2022/02/01 07:09:36;;;;;;;;;;;5.40;99.90;;;;;;5084093;28;19959;-71
2022/02/01 07:12:02;;;;;;;;;;;5.50;99.90;;;;;;5088853;28;19923;-71
2022/02/01 07:14:28;;;;;;;;;;;5.50;99.90;;;;;;5092801;28;19931;-71
2022/02/01 07:16:53;;;;;;;;;;;5.50;99.90;;;;;;5089197;28;19920;-71
2022/02/01 07:19:19;;;;;;;;;;;5.60;99.90;;;;;;5087538;28;20019;-71
2022/02/01 07:21:44;;;;;;;;;;;5.60;99.90;;;;;;5085226;28;20291;-72
2022/02/01 07:24:15;;;;;;;;;;;5.60;99.90;;;;;;5088931;28;19966;-72
2022/02/01 07:26:42;;;;;;;;;;;5.60;99.90;;;;;;5089518;28;19923;-72
2022/02/01 07:29:08;;;;;;;;;;;5.70;99.90;;;;;;5082263;28;19912;-71
2022/02/01 07:31:33;;;;;;;;;;;5.70;99.90;;;;;;5087489;28;19923;-72
2022/02/01 07:33:59;;;;;;;;;;;5.70;99.90;;;;;;5084765;28;19944;-73
2022/02/01 07:36:24;;;;;;;;;;;5.80;99.90;;;;;;5081268;28;19944;-72
2022/02/01 07:38:50;;;;;;;;;;;5.80;99.90;;;;;;5086101;28;19916;-72
2022/02/01 07:41:16;;;;;;;;;;;5.80;99.90;;;;;;5083490;28;19916;-73
2022/02/01 07:43:41;;;;;;;;;;;5.90;99.90;;;;;;5083738;28;19916;-73
2022/02/01 07:46:11;;;;;;;;;;;5.90;99.90;;;;;;5085130;28;19958;-73
2022/02/01 07:48:36;;;;;;;;;;;5.90;99.90;;;;;;5083432;28;19922;-73
2022/02/01 07:51:02;;;;;;;;;;;5.90;99.90;;;;;;5081464;28;19913;-73
2022/02/01 07:53:28;;;;;;;;;;;5.90;99.90;;;;;;5068425;28;19920;-74
2022/02/01 07:55:53;;;;;;;;;;;6.00;99.90;;;;;;5081491;28;20031;-73
2022/02/01 07:58:19;;;;;;;;;;;5.90;99.90;;;;;;5093224;28;19912;-73
2022/02/01 08:00:44;;;;;;;;;;;6.00;99.90;;;;;;5093199;28;20361;-74
2022/02/01 08:03:12;;;;;;;;;;;6.00;99.90;;;;;;5093525;28;20336;-73
2022/02/01 08:05:38;;;;;;;;;;;6.00;99.90;;;;;;5091850;28;19993;-74
2022/02/01 08:08:04;;;;;;;;;;;6.00;99.90;;;;;;5092782;28;20390;-72
2022/02/01 08:10:51;;;;;;;;;;;6.00;99.90;;;;;;5091665;28;19920;-73
2022/02/01 08:21:05;;;;;;;;;;;6.10;99.90;;;;;;5084249;28;20330;-72
2022/02/01 08:23:30;;;;;;;;;;;6.20;99.90;;;;;;5087995;28;19966;-73
2022/02/01 08:25:57;;;;;;;;;;;6.20;99.90;;;;;;5088887;28;19970;-73
2022/02/01 08:28:23;;;;;;;;;;;6.20;99.90;;;;;;5082526;28;20007;-74
2022/02/01 08:30:50;;;;;;;;;;;6.10;99.90;;;;;;5075944;28;20028;-74
2022/02/01 08:33:16;;;;;;;;;;;6.20;99.90;;;;;;5076666;28;19913;-73
2022/02/01 08:35:42;;;;;;;;;;;6.20;99.90;;;;;;5094427;28;19958;-74
2022/02/01 08:38:07;;;;;;;;;;;6.20;99.90;;;;;;5090128;28;19920;-73
2022/02/01 08:40:33;;;;;;;;;;;6.20;99.90;;;;;;5088918;28;19919;-74
2022/02/01 08:42:58;;;;;;;;;;;6.30;99.90;;;;;;5091695;28;19924;-73
2022/02/01 08:45:25;;;;;;;;;;;6.30;99.90;;;;;;5092413;28;19926;-73
2022/02/01 08:47:52;;;;;;;;;;;6.30;99.90;;;;;;5092682;28;20218;-74
2022/02/01 08:50:22;;;;;;;;;;;6.30;99.90;;;;;;5089399;28;19916;-73
2022/02/01 08:52:49;;;;;;;;;;;6.30;99.90;;;;;;5089992;28;19987;-74
2022/02/01 08:55:21;;;;;;;;;;;6.40;99.90;;;;;;5078861;28;19969;-75
2022/02/01 08:57:47;;;;;;;;;;;6.40;99.90;;;;;;5086784;28;19916;-74
2022/02/01 09:00:15;;;;;;;;;;;6.40;99.90;;;;;;5087588;28;19920;-75
2022/02/01 09:02:45;;;;;;;;;;;6.50;99.90;;;;;;5088458;28;19920;-75
2022/02/01 09:05:10;;;;;;;;;;;6.50;99.90;;;;;;5081715;28;20034;-74
2022/02/01 09:07:36;;;;;;;;;;;6.60;99.90;;;;;;5087939;28;20014;-74
2022/02/01 09:10:02;;;;;;;;;;;6.60;99.90;;;;;;5089208;28;20002;-76
2022/02/01 09:12:28;;;;;;;;;;;6.60;99.90;;;;;;5089085;28;20052;-74
2022/02/01 09:14:53;;;;;;;;;;;6.60;99.90;;;;;;5089322;28;20032;-74
2022/02/01 09:17:20;;;;;;;;;;;6.70;99.90;;;;;;5086817;28;20245;-75
2022/02/01 09:19:45;;;;;;;;;;;6.70;99.90;;;;;;5087135;28;20307;-74
2022/02/01 09:22:11;;;;;;;;;;;6.70;99.90;;;;;;5086146;28;19920;-74
2022/02/01 09:24:37;;;;;;;;;;;6.70;99.90;;;;;;5084282;28;19927;-74
2022/02/01 09:27:03;;;;;;;;;;;6.70;99.90;;;;;;5082963;28;20329;-75
2022/02/01 09:29:29;;;;;;;;;;;6.80;99.90;;;;;;5088885;28;19969;-75
2022/02/01 09:31:55;;;;;;;;;;;6.70;99.90;;;;;;5088848;28;19965;-74
2022/02/01 09:34:21;;;;;;;;;;;6.70;99.90;;;;;;5090030;28;19920;-74
2022/02/01 09:36:50;;;;;;;;;;;6.80;99.90;;;;;;5091642;28;20006;-74
2022/02/01 09:39:16;;;;;;;;;;;6.80;99.90;;;;;;5086782;28;19987;-74
2022/02/01 09:41:42;;;;;;;;;;;6.80;99.90;;;;;;5086283;28;20259;-75
2022/02/01 09:44:11;;;;;;;;;;;6.80;99.90;;;;;;5086648;28;20200;-74
2022/02/01 09:46:36;;;;;;;;;;;6.80;99.90;;;;;;5087047;28;19955;-75
2022/02/01 09:49:03;;;;;;;;;;;6.80;99.90;;;;;;5089018;28;19997;-74
2022/02/01 09:51:28;;;;;;;;;;;6.90;99.90;;;;;;5086321;28;20557;-75
2022/02/01 09:53:54;;;;;;;;;;;6.90;99.90;;;;;;5086726;28;19920;-76
2022/02/01 09:56:19;;;;;;;;;;;6.90;99.90;;;;;;5081646;28;19920;-76
2022/02/01 09:58:48;;;;;;;;;;;6.90;99.90;;;;;;5084631;28;20015;-75
2022/02/01 10:01:15;;;;;;;;;;;6.90;99.90;;;;;;5082772;28;19920;-74
2022/02/01 10:03:41;;;;;;;;;;;7.00;99.90;;;;;;5073121;28;20010;-76
2022/02/01 10:06:08;;;;;;;;;;;7.00;99.90;;;;;;5088543;28;19933;-74
2022/02/01 10:08:34;;;;;;;;;;;7.10;99.90;;;;;;5072550;28;19917;-75
2022/02/01 10:11:00;;;;;;;;;;;7.10;99.90;;;;;;5084017;28;20265;-75
2022/02/01 10:13:26;;;;;;;;;;;7.10;99.90;;;;;;5079501;28;19913;-75
2022/02/01 10:16:03;;;;;;;;;;;7.20;99.90;;;;;;5084781;28;19959;-74
2022/02/01 10:18:31;;;;;;;;;;;7.20;99.90;;;;;;5081499;28;19973;-75
2022/02/01 10:21:04;;;;;;;;;;;7.20;99.90;;;;;;5084407;28;19941;-74
2022/02/01 10:23:31;;;;;;;;;;;7.20;99.90;;;;;;5081085;28;19920;-73
2022/02/01 10:25:58;;;;;;;;;;;7.30;99.90;;;;;;5073239;28;19969;-74
2022/02/01 10:28:26;;;;;;;;;;;7.30;99.90;;;;;;5079812;28;20258;-74
2022/02/01 10:30:52;;;;;;;;;;;7.40;99.90;;;;;;5084975;28;19920;-74
2022/02/01 10:33:59;;;;;;;;;;;7.40;99.90;;;;;;5078256;28;19916;-74
2022/02/01 10:36:34;;;;;;;;;;;7.40;99.90;;;;;;5079034;28;20006;-75
2022/02/01 10:38:59;;;;;;;;;;;7.50;99.90;;;;;;5086502;28;19924;-75
2022/02/01 10:41:25;;;;;;;;;;;7.50;99.90;;;;;;5084773;28;19916;-74
2022/02/01 10:43:51;;;;;;;;;;;7.50;99.90;;;;;;5084439;28;19927;-73
2022/02/01 10:46:18;;;;;;;;;;;7.50;99.90;;;;;;5083816;28;19923;-75
2022/02/01 10:48:48;;;;;;;;;;;7.50;99.90;;;;;;5085858;28;19920;-73
2022/02/01 10:51:15;;;;;;;;;;;7.60;99.90;;;;;;5082974;28;19927;-74
2022/02/01 10:53:41;;;;;;;;;;;7.60;99.90;;;;;;5091705;28;20010;-75
2022/02/01 10:56:12;;;;;;;;;;;7.60;99.90;;;;;;5089015;28;19949;-73
2022/02/01 10:58:37;;;;;;;;;;;7.70;99.90;;;;;;5091099;28;20262;-74
2022/02/01 11:01:04;;;;;;;;;;;7.70;99.90;;;;;;5089555;28;19916;-75
2022/02/01 11:03:30;;;;;;;;;;;7.70;99.90;;;;;;5092327;28;20223;-75
2022/02/01 11:05:57;;;;;;;;;;;7.70;99.90;;;;;;5092412;28;20049;-75
2022/02/01 11:08:26;;;;;;;;;;;7.70;99.90;;;;;;5092311;28;19916;-75
2022/02/01 11:10:52;;;;;;;;;;;7.70;99.90;;;;;;5090187;28;20324;-73
2022/02/01 11:13:18;;;;;;;;;;;7.80;99.90;;;;;;5088499;28;19927;-73
2022/02/01 11:15:55;;;;;;;;;;;7.80;99.90;;;;;;5090906;28;19959;-74
2022/02/01 11:18:25;;;;;;;;;;;7.80;99.90;;;;;;5090583;28;20575;-75
2022/02/01 11:20:52;;;;;;;;;;;7.80;99.90;;;;;;5088549;28;20026;-74
2022/02/01 11:23:21;;;;;;;;;;;7.70;99.90;;;;;;5090221;28;19927;-74
2022/02/01 11:25:50;;;;;;;;;;;7.80;99.90;;;;;;5087758;28;19920;-74
2022/02/01 11:28:38;;;;;;;;;;;7.80;99.90;;;;;;5092146;28;19923;-74
2022/02/01 11:31:04;;;;;;;;;;;7.80;99.90;;;;;;5084288;28;20314;-75
2022/02/01 11:33:37;;;;;;;;;;;7.80;99.90;;;;;;5090451;28;20019;-75
2022/02/01 11:36:04;;;;;;;;;;;7.80;99.90;;;;;;5090355;28;19916;-75
2022/02/01 11:38:30;;;;;;;;;;;7.80;99.90;;;;;;5084271;28;19920;-75
2022/02/01 11:41:07;;;;;;;;;;;7.90;99.90;;;;;;5082717;28;19916;-75
2022/02/01 11:43:34;;;;;;;;;;;7.90;99.90;;;;;;5080895;28;19977;-74
2022/02/01 11:46:01;;;;;;;;;;;7.90;99.90;;;;;;5078448;28;20041;-75
2022/02/01 11:48:32;;;;;;;;;;;8.00;99.90;;;;;;5086456;28;19923;-75
2022/02/01 11:50:59;;;;;;;;;;;8.00;99.90;;;;;;5079155;28;19952;-73
2022/02/01 11:53:24;;;;;;;;;;;8.00;99.90;;;;;;5092243;28;20353;-73
2022/02/01 11:55:51;;;;;;;;;;;8.10;99.90;;;;;;5077626;28;19921;-75
2022/02/01 11:58:27;;;;;;;;;;;8.10;99.90;;;;;;5079104;28;20015;-75
2022/02/01 12:00:53;;;;;;;;;;;8.10;99.90;;;;;;5080742;28;19998;-77
2022/02/01 12:03:21;;;;;;;;;;;8.20;99.90;;;;;;5075975;28;20358;-76
2022/02/01 12:05:57;;;;;;;;;;;8.20;99.90;;;;;;5077979;28;19920;-75
2022/02/01 12:08:28;;;;;;;;;;;8.30;99.90;;;;;;5078890;28;19924;-75
2022/02/01 12:10:57;;;;;;;;;;;8.30;99.90;;;;;;5079092;28;20012;-75
2022/02/01 12:13:23;;;;;;;;;;;8.40;99.90;;;;;;5080510;28;19921;-75
2022/02/01 12:15:51;;;;;;;;;;;8.40;99.90;;;;;;5078579;28;20220;-76
2022/02/01 12:18:35;;;;;;;;;;;8.40;99.90;;;;;;5078515;28;20559;-74
2022/02/01 12:21:15;;;;;;;;;;;8.40;99.90;;;;;;5085843;28;20318;-72
2022/02/01 12:23:48;;;;;;;;;;;8.40;99.90;;;;;;5088699;28;20264;-75
2022/02/01 12:26:40;;;;;;;;;;;8.40;99.90;;;;;;5080163;28;19958;-75
2022/02/01 12:29:09;;;;;;;;;;;8.50;99.90;;;;;;5089209;28;19920;-78
2022/02/01 12:31:38;;;;;;;;;;;8.50;99.90;;;;;;5084000;28;19916;-76
2022/02/01 12:34:05;;;;;;;;;;;8.50;99.90;;;;;;5088491;28;20156;-75
2022/02/01 12:36:37;;;;;;;;;;;8.50;99.90;;;;;;5090341;28;19924;-76
2022/02/01 12:39:14;;;;;;;;;;;8.50;99.90;;;;;;5088412;28;19927;-72
2022/02/01 12:41:43;;;;;;;;;;;8.50;99.90;;;;;;5088962;28;19920;-74
2022/02/01 12:46:43;;;;;;;;;;;8.50;99.90;;;;;;5090621;28;19920;-77
2022/02/01 12:49:08;;;;;;;;;;;8.60;99.90;;;;;;5087866;28;19978;-76
2022/02/01 12:51:45;;;;;;;;;;;8.60;99.90;;;;;;5090902;28;20315;-76
2022/02/01 12:54:24;;;;;;;;;;;8.60;99.90;;;;;;5088314;28;19920;-76
2022/02/01 12:57:05;;;;;;;;;;;8.70;99.90;;;;;;5090153;28;19916;-72
2022/02/01 12:59:41;;;;;;;;;;;8.70;99.90;;;;;;5087092;28;20230;-75
2022/02/01 13:02:11;;;;;;;;;;;8.70;99.90;;;;;;5088899;28;19924;-75
2022/02/01 13:04:37;;;;;;;;;;;8.80;99.90;;;;;;5089529;28;19935;-76
2022/02/01 13:07:04;;;;;;;;;;;8.80;99.90;;;;;;5089840;28;19939;-75
2022/02/01 13:15:06;;;;;;;;;;;8.90;99.90;;;;;;5088421;28;19992;-76
2022/02/01 13:17:52;;;;;;;;;;;8.90;99.90;;;;;;5076457;28;19916;-75
2022/02/01 13:20:22;;;;;;;;;;;8.90;99.90;;;;;;5074269;28;19920;-73
2022/02/01 13:22:49;;;;;;;;;;;8.90;99.90;;;;;;5090462;28;19916;-75
2022/02/01 13:25:14;;;;;;;;;;;8.90;99.90;;;;;;5090864;28;20652;-74
2022/02/01 13:27:40;;;;;;;;;;;9.00;99.90;;;;;;5084940;28;19997;-74
2022/02/01 13:30:07;;;;;;;;;;;9.00;99.90;;;;;;5088089;28;20461;-75
2022/02/01 13:32:34;;;;;;;;;;;9.00;99.90;;;;;;5076492;28;20129;-73
2022/02/01 13:35:00;;;;;;;;;;;9.00;99.90;;;;;;5087224;28;19916;-73
2022/02/01 13:37:26;;;;;;;;;;;9.00;99.90;;;;;;5086532;28;19920;-74
2022/02/01 13:39:51;;;;;;;;;;;9.00;99.90;;;;;;5084675;28;19972;-74
2022/02/01 13:42:18;;;;;;;;;;;9.00;99.90;;;;;;5085406;28;19962;-73
2022/02/01 13:44:50;;;;;;;;;;;8.90;99.90;;;;;;5088530;28;19967;-74
2022/02/01 13:47:16;;;;;;;;;;;9.00;99.90;;;;;;5087086;28;19916;-75
2022/02/01 13:49:42;;;;;;;;;;;9.00;99.90;;;;;;5086191;28;19912;-73
2022/02/01 13:52:09;;;;;;;;;;;9.00;99.90;;;;;;5088026;28;20289;-74
2022/02/01 13:54:37;;;;;;;;;;;9.00;99.90;;;;;;5089349;28;19959;-74
2022/02/01 13:57:12;;;;;;;;;;;9.10;99.90;;;;;;5088844;28;19970;-75
2022/02/01 13:59:38;;;;;;;;;;;9.10;99.90;;;;;;5085519;28;19916;-74
2022/02/01 14:02:05;;;;;;;;;;;9.10;99.90;;;;;;5084056;28;19927;-76
2022/02/01 14:04:45;;;;;;;;;;;9.10;99.90;;;;;;5088829;28;19924;-74
2022/02/01 14:07:18;;;;;;;;;;;9.10;99.90;;;;;;5087667;28;19920;-74
2022/02/01 14:28:12;;;;;;;;;;;9.10;99.90;;;;;;5092986;28;19916;-74
2022/02/01 14:35:54;;;;;;;;;;;9.10;99.90;;;;;;5092025;28;19920;-74
2022/02/01 14:43:48;;;;;;;;;;;9.20;99.90;;;;;;5088331;28;19962;-75
2022/02/01 14:46:13;;;;;;;;;;;9.10;99.90;;;;;;5092301;28;19924;-73
2022/02/01 14:48:39;;;;;;;;;;;9.20;99.90;;;;;;5089302;28;19916;-73
2022/02/01 14:51:05;;;;;;;;;;;9.20;99.90;;;;;;5090365;28;19927;-74
2022/02/01 14:53:32;;;;;;;;;;;9.10;99.90;;;;;;5091256;28;19973;-73
2022/02/01 14:56:20;;;;;;;;;;;9.10;99.90;;;;;;5090335;28;20263;-74
2022/02/01 15:14:29;;;;;;;;;;;9.20;99.90;;;;;;5084157;28;19916;-75
2022/02/01 15:16:54;;;;;;;;;;;9.20;99.90;;;;;;5084179;28;19959;-75
2022/02/01 15:19:20;;;;;;;;;;;9.20;99.90;;;;;;5084776;28;19924;-74
2022/02/01 15:21:47;;;;;;;;;;;9.20;99.90;;;;;;5091091;28;19919;-74
2022/02/01 15:24:13;;;;;;;;;;;9.20;99.90;;;;;;5087356;28;19920;-72
2022/02/01 15:26:38;;;;;;;;;;;9.20;99.90;;;;;;5083628;28;20235;-73
2022/02/01 15:29:04;;;;;;;;;;;9.20;99.90;;;;;;5082241;28;19916;-72
2022/02/01 15:31:30;;;;;;;;;;;9.20;99.90;;;;;;5084829;28;19967;-72
2022/02/01 15:33:56;;;;;;;;;;;9.20;99.90;;;;;;5089817;28;19921;-73
2022/02/01 15:36:22;;;;;;;;;;;9.10;99.90;;;;;;5079268;28;19920;-74
2022/02/01 15:46:09;;;;;;;;;;;9.20;99.90;;;;;;5081212;28;20244;-73
2022/02/01 15:58:18;;;;;;;;;;;9.20;99.90;;;;;;5087425;28;20005;-73
2022/02/01 16:00:44;;;;;;;;;;;9.20;99.90;;;;;;5086558;28;19916;-74
2022/02/01 16:03:19;;;;;;;;;;;9.20;99.90;;;;;;5083628;28;19923;-73
2022/02/01 16:05:44;;;;;;;;;;;9.20;99.90;;;;;;5087523;28;19920;-76
2022/02/01 16:08:12;;;;;;;;;;;9.20;99.90;;;;;;5084369;28;20018;-73
2022/02/01 16:10:49;;;;;;;;;;;9.30;99.90;;;;;;5084121;28;19923;-75
2022/02/01 16:13:22;;;;;;;;;;;9.30;99.90;;;;;;5082754;28;20401;-73
2022/02/01 16:15:49;;;;;;;;;;;9.30;99.90;;;;;;5082720;28;19977;-74
2022/02/01 16:18:15;;;;;;;;;;;9.30;99.90;;;;;;5086954;28;19916;-72
2022/02/01 16:20:40;;;;;;;;;;;9.30;99.90;;;;;;5088747;28;19916;-73
2022/02/01 16:23:06;;;;;;;;;;;9.30;99.90;;;;;;5085599;28;20003;-75
2022/02/01 16:25:32;;;;;;;;;;;9.20;99.90;;;;;;5090388;28;19971;-73
2022/02/01 16:27:57;;;;;;;;;;;9.20;99.90;;;;;;5079467;28;19912;-74
2022/02/01 16:30:27;;;;;;;;;;;9.20;99.90;;;;;;5087954;28;19916;-72
2022/02/01 16:32:52;;;;;;;;;;;9.20;99.90;;;;;;5083091;28;19939;-74
2022/02/01 16:35:18;;;;;;;;;;;9.20;99.90;;;;;;5088449;28;19947;-73
2022/02/01 16:37:43;;;;;;;;;;;9.30;99.90;;;;;;5081673;28;19958;-75
2022/02/01 16:40:10;;;;;;;;;;;9.30;99.90;;;;;;5082011;28;20279;-74
2022/02/01 16:42:40;;;;;;;;;;;9.30;99.90;;;;;;5087207;28;19988;-74
2022/02/01 16:45:08;;;;;;;;;;;9.20;99.90;;;;;;5083497;28;20440;-74
2022/02/01 16:47:35;;;;;;;;;;;9.30;99.90;;;;;;5083242;28;19917;-72
2022/02/01 16:50:05;;;;;;;;;;;9.30;99.90;;;;;;5078703;28;20622;-74
2022/02/01 16:52:35;;;;;;;;;;;9.30;99.90;;;;;;5077845;28;19974;-73
2022/02/01 16:55:08;;;;;;;;;;;9.40;99.90;;;;;;5082917;28;19981;-74
2022/02/01 16:57:45;;;;;;;;;;;9.30;99.90;;;;;;5080489;28;19924;-75
2022/02/01 17:00:14;;;;;;;;;;;9.30;99.90;;;;;;5083371;28;19920;-74
2022/02/01 17:02:40;;;;;;;;;;;9.30;99.90;;;;;;5077031;28;19923;-72
2022/02/01 17:05:06;;;;;;;;;;;9.40;99.90;;;;;;5079063;28;19924;-73
2022/02/01 17:07:31;;;;;;;;;;;9.40;99.90;;;;;;5081768;28;19923;-74
2022/02/01 17:09:59;;;;;;;;;;;9.40;99.90;;;;;;5082178;28;20014;-74
2022/02/01 17:12:40;;;;;;;;;;;9.30;99.90;;;;;;5074624;28;19916;-73
2022/02/01 17:15:30;;;;;;;;;;;9.30;99.90;;;;;;5087536;28;19917;-73
2022/02/01 17:23:12;;;;;;;;;;;9.30;99.90;;;;;;5074208;28;19916;-73